sensor_id;sensor_type;location;lat;lon;timestamp;P1;durP1;ratioP1;P2;durP2;ratioP2
2622;SDS011;1321;48.690;9.022;2022-12-07T00:01:42;8.60;;;7.75;;
2622;SDS011;1321;48.690;9.022;2022-12-07T00:04:13;7.43;;;6.73;;
2622;SDS011;1321;48.690;9.022;2022-12-07T00:06:43;7.70;;;6.93;;
2622;SDS011;1321;48.690;9.022;2022-12-07T00:09:14;10.18;;;7.43;;
2622;SDS011;1321;48.690;9.022;2022-12-07T00:11:43;9.82;;;8.05;;
2622;SDS011;1321;48.690;9.022;2022-12-07T00:14:15;7.78;;;7.07;;
2622;SDS011;1321;48.690;9.022;2022-12-07T00:16:44;6.72;;;6.22;;
2622;SDS011;1321;48.690;9.022;2022-12-07T00:19:13;7.10;;;6.40;;
2622;SDS011;1321;48.690;9.022;2022-12-07T00:21:41;7.20;;;6.60;;
2622;SDS011;1321;48.690;9.022;2022-12-07T00:24:10;8.05;;;7.25;;
2622;SDS011;1321;48.690;9.022;2022-12-07T00:26:41;7.35;;;6.75;;
2622;SDS011;1321;48.690;9.022;2022-12-07T00:29:12;8.23;;;7.43;;
2622;SDS011;1321;48.690;9.022;2022-12-07T00:31:42;9.55;;;7.55;;
2622;SDS011;1321;48.690;9.022;2022-12-07T00:34:12;8.15;;;7.45;;
2622;SDS011;1321;48.690;9.022;2022-12-07T00:36:41;8.60;;;7.78;;
2622;SDS011;1321;48.690;9.022;2022-12-07T00:39:10;7.75;;;6.95;;
2622;SDS011;1321;48.690;9.022;2022-12-07T00:41:40;7.70;;;7.00;;
2622;SDS011;1321;48.690;9.022;2022-12-07T00:44:08;8.57;;;7.73;;
2622;SDS011;1321;48.690;9.022;2022-12-07T00:46:36;10.45;;;7.65;;
2622;SDS011;1321;48.690;9.022;2022-12-07T00:49:04;7.53;;;6.70;;
2622;SDS011;1321;48.690;9.022;2022-12-07T00:51:33;8.07;;;7.38;;
2622;SDS011;1321;48.690;9.022;2022-12-07T00:54:01;11.85;;;8.88;;
2622;SDS011;1321;48.690;9.022;2022-12-07T00:56:29;9.15;;;8.02;;
2622;SDS011;1321;48.690;9.022;2022-12-07T00:59:00;9.73;;;8.60;;
2622;SDS011;1321;48.690;9.022;2022-12-07T01:01:30;8.15;;;7.45;;
2622;SDS011;1321;48.690;9.022;2022-12-07T01:04:00;9.37;;;8.47;;
2622;SDS011;1321;48.690;9.022;2022-12-07T01:06:29;8.23;;;7.55;;
2622;SDS011;1321;48.690;9.022;2022-12-07T01:08:58;8.10;;;7.40;;
2622;SDS011;1321;48.690;9.022;2022-12-07T01:11:27;9.68;;;8.70;;
2622;SDS011;1321;48.690;9.022;2022-12-07T01:13:57;8.20;;;7.40;;
2622;SDS011;1321;48.690;9.022;2022-12-07T01:16:27;8.82;;;7.97;;
2622;SDS011;1321;48.690;9.022;2022-12-07T01:18:57;8.45;;;7.65;;
2622;SDS011;1321;48.690;9.022;2022-12-07T01:21:27;9.80;;;8.80;;
2622;SDS011;1321;48.690;9.022;2022-12-07T01:23:57;8.05;;;7.25;;
2622;SDS011;1321;48.690;9.022;2022-12-07T01:26:25;7.82;;;7.22;;
2622;SDS011;1321;48.690;9.022;2022-12-07T01:28:54;9.63;;;8.80;;
2622;SDS011;1321;48.690;9.022;2022-12-07T01:31:26;9.70;;;8.10;;
2622;SDS011;1321;48.690;9.022;2022-12-07T01:33:56;11.65;;;9.50;;
2622;SDS011;1321;48.690;9.022;2022-12-07T01:36:26;8.68;;;7.60;;
2622;SDS011;1321;48.690;9.022;2022-12-07T01:38:56;8.52;;;7.70;;
2622;SDS011;1321;48.690;9.022;2022-12-07T01:41:27;10.17;;;9.10;;
2622;SDS011;1321;48.690;9.022;2022-12-07T01:44:14;8.60;;;7.80;;
2622;SDS011;1321;48.690;9.022;2022-12-07T01:46:46;9.88;;;8.85;;
2622;SDS011;1321;48.690;9.022;2022-12-07T01:49:19;10.32;;;8.80;;
2622;SDS011;1321;48.690;9.022;2022-12-07T01:51:52;10.40;;;9.07;;
2622;SDS011;1321;48.690;9.022;2022-12-07T01:54:25;9.55;;;8.57;;
2622;SDS011;1321;48.690;9.022;2022-12-07T01:56:54;9.30;;;8.27;;
2622;SDS011;1321;48.690;9.022;2022-12-07T01:59:24;9.30;;;8.00;;
2622;SDS011;1321;48.690;9.022;2022-12-07T02:01:55;8.50;;;7.70;;
2622;SDS011;1321;48.690;9.022;2022-12-07T02:04:24;8.98;;;8.10;;
2622;SDS011;1321;48.690;9.022;2022-12-07T02:06:52;10.65;;;8.68;;
2622;SDS011;1321;48.690;9.022;2022-12-07T02:09:22;9.30;;;8.40;;
2622;SDS011;1321;48.690;9.022;2022-12-07T02:11:50;9.60;;;8.20;;
2622;SDS011;1321;48.690;9.022;2022-12-07T02:14:19;11.45;;;8.93;;
2622;SDS011;1321;48.690;9.022;2022-12-07T02:16:51;8.70;;;7.88;;
2622;SDS011;1321;48.690;9.022;2022-12-07T02:20:00;9.88;;;8.88;;
2622;SDS011;1321;48.690;9.022;2022-12-07T02:25:50;8.68;;;7.88;;
2622;SDS011;1321;48.690;9.022;2022-12-07T02:28:29;9.40;;;8.55;;
2622;SDS011;1321;48.690;9.022;2022-12-07T02:31:04;8.60;;;7.80;;
2622;SDS011;1321;48.690;9.022;2022-12-07T02:33:38;8.43;;;7.53;;
2622;SDS011;1321;48.690;9.022;2022-12-07T02:36:11;9.17;;;8.27;;
2622;SDS011;1321;48.690;9.022;2022-12-07T02:38:45;8.93;;;8.02;;
2622;SDS011;1321;48.690;9.022;2022-12-07T02:41:20;10.55;;;9.43;;
2622;SDS011;1321;48.690;9.022;2022-12-07T02:43:53;9.15;;;8.15;;
2622;SDS011;1321;48.690;9.022;2022-12-07T02:46:25;9.63;;;8.57;;
2622;SDS011;1321;48.690;9.022;2022-12-07T02:48:57;7.72;;;7.03;;
2622;SDS011;1321;48.690;9.022;2022-12-07T02:51:29;8.07;;;7.38;;
2622;SDS011;1321;48.690;9.022;2022-12-07T02:53:58;7.00;;;6.40;;
2622;SDS011;1321;48.690;9.022;2022-12-07T02:56:27;8.10;;;7.30;;
2622;SDS011;1321;48.690;9.022;2022-12-07T02:59:08;7.88;;;7.20;;
2622;SDS011;1321;48.690;9.022;2022-12-07T03:01:46;7.90;;;7.20;;
2622;SDS011;1321;48.690;9.022;2022-12-07T03:04:29;8.27;;;7.47;;
2622;SDS011;1321;48.690;9.022;2022-12-07T03:07:08;7.85;;;7.05;;
2622;SDS011;1321;48.690;9.022;2022-12-07T03:09:47;8.38;;;6.95;;
2622;SDS011;1321;48.690;9.022;2022-12-07T03:12:22;7.45;;;6.75;;
2622;SDS011;1321;48.690;9.022;2022-12-07T03:14:59;8.50;;;7.35;;
2622;SDS011;1321;48.690;9.022;2022-12-07T03:17:33;9.70;;;8.05;;
2622;SDS011;1321;48.690;9.022;2022-12-07T03:20:05;7.70;;;7.00;;
2622;SDS011;1321;48.690;9.022;2022-12-07T03:22:39;8.05;;;7.35;;
2622;SDS011;1321;48.690;9.022;2022-12-07T03:25:11;9.07;;;7.57;;
2622;SDS011;1321;48.690;9.022;2022-12-07T03:27:44;9.55;;;6.97;;
2622;SDS011;1321;48.690;9.022;2022-12-07T03:30:17;8.05;;;7.32;;
2622;SDS011;1321;48.690;9.022;2022-12-07T03:32:49;8.73;;;7.82;;
2622;SDS011;1321;48.690;9.022;2022-12-07T03:35:22;10.93;;;9.88;;
2622;SDS011;1321;48.690;9.022;2022-12-07T03:37:54;9.82;;;8.70;;
2622;SDS011;1321;48.690;9.022;2022-12-07T03:40:28;7.50;;;6.80;;
2622;SDS011;1321;48.690;9.022;2022-12-07T03:43:01;8.05;;;7.32;;
2622;SDS011;1321;48.690;9.022;2022-12-07T03:45:34;8.35;;;7.55;;
2622;SDS011;1321;48.690;9.022;2022-12-07T03:48:08;8.07;;;7.28;;
2622;SDS011;1321;48.690;9.022;2022-12-07T03:50:48;9.00;;;8.10;;
2622;SDS011;1321;48.690;9.022;2022-12-07T03:53:22;9.30;;;7.80;;
2622;SDS011;1321;48.690;9.022;2022-12-07T03:55:57;8.60;;;7.70;;
2622;SDS011;1321;48.690;9.022;2022-12-07T03:58:26;9.73;;;7.95;;
2622;SDS011;1321;48.690;9.022;2022-12-07T04:00:55;9.18;;;7.88;;
2622;SDS011;1321;48.690;9.022;2022-12-07T04:03:24;7.90;;;7.20;;
2622;SDS011;1321;48.690;9.022;2022-12-07T04:05:53;8.80;;;8.00;;
2622;SDS011;1321;48.690;9.022;2022-12-07T04:08:21;8.30;;;7.47;;
2622;SDS011;1321;48.690;9.022;2022-12-07T04:10:50;8.23;;;7.43;;
2622;SDS011;1321;48.690;9.022;2022-12-07T04:13:18;8.82;;;8.00;;
2622;SDS011;1321;48.690;9.022;2022-12-07T04:15:46;8.75;;;8.05;;
2622;SDS011;1321;48.690;9.022;2022-12-07T04:18:14;8.07;;;7.30;;
2622;SDS011;1321;48.690;9.022;2022-12-07T04:20:45;8.38;;;7.35;;
2622;SDS011;1321;48.690;9.022;2022-12-07T04:23:13;8.00;;;7.20;;
2622;SDS011;1321;48.690;9.022;2022-12-07T04:25:42;7.85;;;7.22;;
2622;SDS011;1321;48.690;9.022;2022-12-07T04:28:10;6.82;;;6.20;;
2622;SDS011;1321;48.690;9.022;2022-12-07T04:30:38;7.72;;;6.93;;
2622;SDS011;1321;48.690;9.022;2022-12-07T04:33:06;7.90;;;7.15;;
2622;SDS011;1321;48.690;9.022;2022-12-07T04:35:35;8.32;;;7.53;;
2622;SDS011;1321;48.690;9.022;2022-12-07T04:38:04;7.60;;;6.50;;
2622;SDS011;1321;48.690;9.022;2022-12-07T04:40:32;7.35;;;6.65;;
2622;SDS011;1321;48.690;9.022;2022-12-07T04:43:00;7.18;;;6.57;;
2622;SDS011;1321;48.690;9.022;2022-12-07T04:45:29;7.40;;;6.70;;
2622;SDS011;1321;48.690;9.022;2022-12-07T04:47:57;7.18;;;6.63;;
2622;SDS011;1321;48.690;9.022;2022-12-07T04:50:25;7.32;;;6.50;;
2622;SDS011;1321;48.690;9.022;2022-12-07T04:52:53;6.73;;;6.03;;
2622;SDS011;1321;48.690;9.022;2022-12-07T04:55:23;6.78;;;6.18;;
2622;SDS011;1321;48.690;9.022;2022-12-07T04:57:51;8.05;;;6.70;;
2622;SDS011;1321;48.690;9.022;2022-12-07T05:00:19;8.10;;;7.30;;
2622;SDS011;1321;48.690;9.022;2022-12-07T05:02:47;7.82;;;6.70;;
2622;SDS011;1321;48.690;9.022;2022-12-07T05:05:16;7.03;;;6.43;;
2622;SDS011;1321;48.690;9.022;2022-12-07T05:07:44;7.10;;;6.53;;
2622;SDS011;1321;48.690;9.022;2022-12-07T05:10:12;11.65;;;7.47;;
2622;SDS011;1321;48.690;9.022;2022-12-07T05:12:42;7.20;;;6.50;;
2622;SDS011;1321;48.690;9.022;2022-12-07T05:15:10;7.40;;;6.72;;
2622;SDS011;1321;48.690;9.022;2022-12-07T05:17:38;7.55;;;6.85;;
2622;SDS011;1321;48.690;9.022;2022-12-07T05:20:07;7.38;;;6.72;;
2622;SDS011;1321;48.690;9.022;2022-12-07T05:22:36;6.63;;;6.03;;
2622;SDS011;1321;48.690;9.022;2022-12-07T05:25:04;7.38;;;6.72;;
2622;SDS011;1321;48.690;9.022;2022-12-07T05:27:33;6.22;;;5.65;;
2622;SDS011;1321;48.690;9.022;2022-12-07T05:30:02;8.25;;;6.22;;
2622;SDS011;1321;48.690;9.022;2022-12-07T05:32:32;8.32;;;7.50;;
2622;SDS011;1321;48.690;9.022;2022-12-07T05:35:00;7.03;;;6.25;;
2622;SDS011;1321;48.690;9.022;2022-12-07T05:37:28;6.45;;;5.95;;
2622;SDS011;1321;48.690;9.022;2022-12-07T05:39:56;6.60;;;5.90;;
2622;SDS011;1321;48.690;9.022;2022-12-07T05:42:25;6.85;;;6.30;;
2622;SDS011;1321;48.690;9.022;2022-12-07T05:44:53;6.93;;;6.30;;
2622;SDS011;1321;48.690;9.022;2022-12-07T05:47:23;7.22;;;6.60;;
2622;SDS011;1321;48.690;9.022;2022-12-07T05:49:51;9.88;;;7.75;;
2622;SDS011;1321;48.690;9.022;2022-12-07T05:52:19;7.10;;;6.40;;
2622;SDS011;1321;48.690;9.022;2022-12-07T05:54:48;6.53;;;6.03;;
2622;SDS011;1321;48.690;9.022;2022-12-07T05:57:16;6.78;;;6.18;;
2622;SDS011;1321;48.690;9.022;2022-12-07T05:59:44;7.53;;;6.82;;
2622;SDS011;1321;48.690;9.022;2022-12-07T06:02:12;9.75;;;7.78;;
2622;SDS011;1321;48.690;9.022;2022-12-07T06:04:43;6.28;;;5.68;;
2622;SDS011;1321;48.690;9.022;2022-12-07T06:07:14;6.32;;;5.82;;
2622;SDS011;1321;48.690;9.022;2022-12-07T06:09:43;6.28;;;5.65;;
2622;SDS011;1321;48.690;9.022;2022-12-07T06:12:11;6.63;;;5.90;;
2622;SDS011;1321;48.690;9.022;2022-12-07T06:14:58;7.60;;;6.50;;
2622;SDS011;1321;48.690;9.022;2022-12-07T06:17:27;6.35;;;5.80;;
2622;SDS011;1321;48.690;9.022;2022-12-07T06:19:57;6.80;;;6.18;;
2622;SDS011;1321;48.690;9.022;2022-12-07T06:22:26;6.40;;;5.90;;
2622;SDS011;1321;48.690;9.022;2022-12-07T06:24:54;12.35;;;6.65;;
2622;SDS011;1321;48.690;9.022;2022-12-07T06:27:22;5.57;;;5.15;;
2622;SDS011;1321;48.690;9.022;2022-12-07T06:29:51;7.20;;;5.32;;
2622;SDS011;1321;48.690;9.022;2022-12-07T06:32:19;7.40;;;5.85;;
2622;SDS011;1321;48.690;9.022;2022-12-07T06:34:47;6.30;;;5.70;;
2622;SDS011;1321;48.690;9.022;2022-12-07T06:37:17;6.28;;;5.57;;
2622;SDS011;1321;48.690;9.022;2022-12-07T06:39:45;6.07;;;5.55;;
2622;SDS011;1321;48.690;9.022;2022-12-07T06:42:13;6.60;;;5.95;;
2622;SDS011;1321;48.690;9.022;2022-12-07T06:44:42;7.70;;;6.60;;
2622;SDS011;1321;48.690;9.022;2022-12-07T06:47:11;7.05;;;6.28;;
2622;SDS011;1321;48.690;9.022;2022-12-07T06:49:59;5.85;;;5.25;;
2622;SDS011;1321;48.690;9.022;2022-12-07T06:52:29;7.50;;;6.40;;
2622;SDS011;1321;48.690;9.022;2022-12-07T06:54:58;8.60;;;6.90;;
2622;SDS011;1321;48.690;9.022;2022-12-07T06:57:27;7.55;;;6.80;;
2622;SDS011;1321;48.690;9.022;2022-12-07T06:59:55;8.68;;;6.90;;
2622;SDS011;1321;48.690;9.022;2022-12-07T07:02:24;7.32;;;6.63;;
2622;SDS011;1321;48.690;9.022;2022-12-07T07:04:52;10.23;;;7.00;;
2622;SDS011;1321;48.690;9.022;2022-12-07T07:07:20;10.25;;;8.40;;
2622;SDS011;1321;48.690;9.022;2022-12-07T07:09:50;8.65;;;7.07;;
2622;SDS011;1321;48.690;9.022;2022-12-07T07:12:18;8.30;;;7.35;;
2622;SDS011;1321;48.690;9.022;2022-12-07T07:14:47;8.90;;;7.18;;
2622;SDS011;1321;48.690;9.022;2022-12-07T07:17:15;10.55;;;8.90;;
2622;SDS011;1321;48.690;9.022;2022-12-07T07:19:43;9.85;;;8.32;;
2622;SDS011;1321;48.690;9.022;2022-12-07T07:22:12;8.50;;;7.80;;
2622;SDS011;1321;48.690;9.022;2022-12-07T07:24:40;7.32;;;6.55;;
2622;SDS011;1321;48.690;9.022;2022-12-07T07:27:10;8.70;;;7.80;;
2622;SDS011;1321;48.690;9.022;2022-12-07T07:29:38;9.00;;;8.05;;
2622;SDS011;1321;48.690;9.022;2022-12-07T07:32:06;8.18;;;6.82;;
2622;SDS011;1321;48.690;9.022;2022-12-07T07:34:35;6.90;;;6.30;;
2622;SDS011;1321;48.690;9.022;2022-12-07T07:37:03;8.57;;;7.70;;
2622;SDS011;1321;48.690;9.022;2022-12-07T07:39:32;8.73;;;6.70;;
2622;SDS011;1321;48.690;9.022;2022-12-07T07:42:00;7.55;;;6.88;;
2622;SDS011;1321;48.690;9.022;2022-12-07T07:44:30;9.27;;;6.40;;
2622;SDS011;1321;48.690;9.022;2022-12-07T07:47:01;5.32;;;4.80;;
2622;SDS011;1321;48.690;9.022;2022-12-07T07:49:29;7.60;;;6.30;;
2622;SDS011;1321;48.690;9.022;2022-12-07T07:51:58;8.95;;;8.25;;
2622;SDS011;1321;48.690;9.022;2022-12-07T07:54:26;6.88;;;6.28;;
2622;SDS011;1321;48.690;9.022;2022-12-07T07:56:54;7.53;;;6.50;;
2622;SDS011;1321;48.690;9.022;2022-12-07T07:59:22;6.82;;;6.13;;
2622;SDS011;1321;48.690;9.022;2022-12-07T08:01:53;6.53;;;5.82;;
2622;SDS011;1321;48.690;9.022;2022-12-07T08:04:21;6.30;;;5.68;;
2622;SDS011;1321;48.690;9.022;2022-12-07T08:06:50;7.22;;;6.18;;
2622;SDS011;1321;48.690;9.022;2022-12-07T08:09:19;7.03;;;6.35;;
2622;SDS011;1321;48.690;9.022;2022-12-07T08:11:48;10.27;;;6.47;;
2622;SDS011;1321;48.690;9.022;2022-12-07T08:14:16;9.35;;;5.55;;
2622;SDS011;1321;48.690;9.022;2022-12-07T08:16:45;6.85;;;6.25;;
2622;SDS011;1321;48.690;9.022;2022-12-07T08:19:15;7.78;;;5.50;;
2622;SDS011;1321;48.690;9.022;2022-12-07T08:21:43;6.20;;;5.60;;
2622;SDS011;1321;48.690;9.022;2022-12-07T08:24:11;6.18;;;5.60;;
2622;SDS011;1321;48.690;9.022;2022-12-07T08:26:40;5.63;;;5.13;;
2622;SDS011;1321;48.690;9.022;2022-12-07T08:29:08;6.10;;;5.50;;
2622;SDS011;1321;48.690;9.022;2022-12-07T08:31:37;5.45;;;4.95;;
2622;SDS011;1321;48.690;9.022;2022-12-07T08:34:07;6.05;;;5.55;;
2622;SDS011;1321;48.690;9.022;2022-12-07T08:36:39;5.50;;;4.97;;
2622;SDS011;1321;48.690;9.022;2022-12-07T08:39:08;6.10;;;5.32;;
2622;SDS011;1321;48.690;9.022;2022-12-07T08:41:56;5.35;;;4.95;;
2622;SDS011;1321;48.690;9.022;2022-12-07T08:44:25;5.47;;;4.97;;
2622;SDS011;1321;48.690;9.022;2022-12-07T08:46:55;8.02;;;5.47;;
2622;SDS011;1321;48.690;9.022;2022-12-07T08:49:27;5.38;;;4.88;;
2622;SDS011;1321;48.690;9.022;2022-12-07T08:52:00;5.53;;;5.13;;
2622;SDS011;1321;48.690;9.022;2022-12-07T08:54:31;7.15;;;5.45;;
2622;SDS011;1321;48.690;9.022;2022-12-07T08:57:03;5.43;;;4.93;;
2622;SDS011;1321;48.690;9.022;2022-12-07T08:59:33;5.88;;;5.35;;
2622;SDS011;1321;48.690;9.022;2022-12-07T09:02:03;8.35;;;5.80;;
2622;SDS011;1321;48.690;9.022;2022-12-07T09:04:33;7.10;;;6.38;;
2622;SDS011;1321;48.690;9.022;2022-12-07T09:07:03;4.97;;;4.55;;
2622;SDS011;1321;48.690;9.022;2022-12-07T09:09:32;5.20;;;4.70;;
2622;SDS011;1321;48.690;9.022;2022-12-07T09:12:01;4.95;;;4.50;;
2622;SDS011;1321;48.690;9.022;2022-12-07T09:14:29;6.55;;;5.47;;
2622;SDS011;1321;48.690;9.022;2022-12-07T09:17:04;6.70;;;5.00;;
2622;SDS011;1321;48.690;9.022;2022-12-07T09:19:34;8.07;;;5.20;;
2622;SDS011;1321;48.690;9.022;2022-12-07T09:22:03;6.75;;;6.00;;
2622;SDS011;1321;48.690;9.022;2022-12-07T09:24:32;5.43;;;4.57;;
2622;SDS011;1321;48.690;9.022;2022-12-07T09:27:01;4.70;;;4.18;;
2622;SDS011;1321;48.690;9.022;2022-12-07T09:29:29;4.85;;;4.45;;
2622;SDS011;1321;48.690;9.022;2022-12-07T09:31:57;5.80;;;4.80;;
2622;SDS011;1321;48.690;9.022;2022-12-07T09:34:29;4.80;;;4.40;;
2622;SDS011;1321;48.690;9.022;2022-12-07T09:37:00;5.07;;;4.67;;
2622;SDS011;1321;48.690;9.022;2022-12-07T09:39:31;4.20;;;3.90;;
2622;SDS011;1321;48.690;9.022;2022-12-07T09:41:59;4.53;;;4.18;;
2622;SDS011;1321;48.690;9.022;2022-12-07T09:44:31;4.47;;;4.00;;
2622;SDS011;1321;48.690;9.022;2022-12-07T09:47:00;5.43;;;4.97;;
2622;SDS011;1321;48.690;9.022;2022-12-07T09:49:31;4.93;;;4.53;;
2622;SDS011;1321;48.690;9.022;2022-12-07T09:52:01;5.00;;;4.50;;
2622;SDS011;1321;48.690;9.022;2022-12-07T09:54:33;4.82;;;4.43;;
2622;SDS011;1321;48.690;9.022;2022-12-07T09:57:04;5.47;;;4.20;;
2622;SDS011;1321;48.690;9.022;2022-12-07T09:59:32;4.97;;;4.43;;
2622;SDS011;1321;48.690;9.022;2022-12-07T10:02:19;4.93;;;4.37;;
2622;SDS011;1321;48.690;9.022;2022-12-07T10:04:58;4.97;;;4.30;;
2622;SDS011;1321;48.690;9.022;2022-12-07T10:07:28;5.65;;;4.78;;
2622;SDS011;1321;48.690;9.022;2022-12-07T10:09:58;4.73;;;4.33;;
2622;SDS011;1321;48.690;9.022;2022-12-07T10:12:29;5.47;;;4.47;;
2622;SDS011;1321;48.690;9.022;2022-12-07T10:14:59;4.40;;;4.00;;
2622;SDS011;1321;48.690;9.022;2022-12-07T10:17:37;4.25;;;3.95;;
2622;SDS011;1321;48.690;9.022;2022-12-07T10:20:18;6.40;;;4.70;;
2622;SDS011;1321;48.690;9.022;2022-12-07T10:22:56;4.63;;;4.23;;
2622;SDS011;1321;48.690;9.022;2022-12-07T10:25:29;3.70;;;3.40;;
2622;SDS011;1321;48.690;9.022;2022-12-07T10:28:00;4.30;;;3.90;;
2622;SDS011;1321;48.690;9.022;2022-12-07T10:30:48;5.20;;;4.80;;
2622;SDS011;1321;48.690;9.022;2022-12-07T10:33:29;5.00;;;4.60;;
2622;SDS011;1321;48.690;9.022;2022-12-07T10:35:59;5.35;;;4.65;;
2622;SDS011;1321;48.690;9.022;2022-12-07T10:38:28;4.60;;;4.20;;
2622;SDS011;1321;48.690;9.022;2022-12-07T10:41:04;6.40;;;4.70;;
2622;SDS011;1321;48.690;9.022;2022-12-07T10:43:35;5.30;;;4.80;;
2622;SDS011;1321;48.690;9.022;2022-12-07T10:46:09;4.87;;;3.70;;
2622;SDS011;1321;48.690;9.022;2022-12-07T10:49:18;5.30;;;4.80;;
2622;SDS011;1321;48.690;9.022;2022-12-07T10:52:07;4.60;;;3.87;;
2622;SDS011;1321;48.690;9.022;2022-12-07T10:54:48;4.47;;;4.07;;
2622;SDS011;1321;48.690;9.022;2022-12-07T10:57:35;5.65;;;5.05;;
2622;SDS011;1321;48.690;9.022;2022-12-07T11:00:13;4.30;;;3.87;;
2622;SDS011;1321;48.690;9.022;2022-12-07T11:05:48;5.73;;;4.47;;
2622;SDS011;1321;48.690;9.022;2022-12-07T11:08:33;5.05;;;4.32;;
2622;SDS011;1321;48.690;9.022;2022-12-07T11:11:13;6.15;;;4.35;;
2622;SDS011;1321;48.690;9.022;2022-12-07T11:13:50;5.87;;;5.30;;
2622;SDS011;1321;48.690;9.022;2022-12-07T11:16:26;4.80;;;4.40;;
2622;SDS011;1321;48.690;9.022;2022-12-07T11:19:06;5.13;;;4.67;;
2622;SDS011;1321;48.690;9.022;2022-12-07T11:21:56;4.73;;;4.27;;
2622;SDS011;1321;48.690;9.022;2022-12-07T11:24:27;5.10;;;4.60;;
2622;SDS011;1321;48.690;9.022;2022-12-07T11:27:04;5.37;;;4.50;;
2622;SDS011;1321;48.690;9.022;2022-12-07T11:29:46;4.40;;;4.00;;
2622;SDS011;1321;48.690;9.022;2022-12-07T11:32:22;5.60;;;4.73;;
2622;SDS011;1321;48.690;9.022;2022-12-07T11:35:08;4.67;;;4.30;;
2622;SDS011;1321;48.690;9.022;2022-12-07T11:37:42;5.00;;;4.60;;
2622;SDS011;1321;48.690;9.022;2022-12-07T11:40:14;4.20;;;3.70;;
2622;SDS011;1321;48.690;9.022;2022-12-07T11:42:49;5.22;;;4.82;;
2622;SDS011;1321;48.690;9.022;2022-12-07T11:45:27;4.63;;;4.32;;
2622;SDS011;1321;48.690;9.022;2022-12-07T11:47:58;4.27;;;4.00;;
2622;SDS011;1321;48.690;9.022;2022-12-07T11:50:33;4.90;;;4.50;;
2622;SDS011;1321;48.690;9.022;2022-12-07T11:53:09;5.03;;;4.57;;
2622;SDS011;1321;48.690;9.022;2022-12-07T11:55:43;5.07;;;4.68;;
2622;SDS011;1321;48.690;9.022;2022-12-07T11:58:23;4.80;;;4.30;;
2622;SDS011;1321;48.690;9.022;2022-12-07T12:01:11;4.60;;;4.17;;
2622;SDS011;1321;48.690;9.022;2022-12-07T12:03:49;4.97;;;4.47;;
2622;SDS011;1321;48.690;9.022;2022-12-07T12:06:20;5.60;;;4.67;;
2622;SDS011;1321;48.690;9.022;2022-12-07T12:08:50;4.20;;;3.80;;
2622;SDS011;1321;48.690;9.022;2022-12-07T12:11:50;5.40;;;4.70;;
2622;SDS011;1321;48.690;9.022;2022-12-07T12:14:59;6.83;;;5.10;;
2622;SDS011;1321;48.690;9.022;2022-12-07T12:20:35;5.93;;;4.95;;
2622;SDS011;1321;48.690;9.022;2022-12-07T12:23:10;5.10;;;4.70;;
2622;SDS011;1321;48.690;9.022;2022-12-07T12:25:43;4.82;;;4.32;;
2622;SDS011;1321;48.690;9.022;2022-12-07T12:28:19;5.00;;;4.60;;
2622;SDS011;1321;48.690;9.022;2022-12-07T12:31:04;6.20;;;5.70;;
2622;SDS011;1321;48.690;9.022;2022-12-07T12:33:36;6.20;;;5.23;;
2622;SDS011;1321;48.690;9.022;2022-12-07T12:39:12;6.22;;;5.63;;
2622;SDS011;1321;48.690;9.022;2022-12-07T12:41:53;4.47;;;4.28;;
2622;SDS011;1321;48.690;9.022;2022-12-07T12:47:39;3.80;;;3.60;;
2622;SDS011;1321;48.690;9.022;2022-12-07T12:50:28;4.87;;;4.10;;
2622;SDS011;1321;48.690;9.022;2022-12-07T12:53:00;4.00;;;3.80;;
2622;SDS011;1321;48.690;9.022;2022-12-07T13:01:51;3.45;;;3.25;;
2622;SDS011;1321;48.690;9.022;2022-12-07T13:04:24;3.37;;;3.10;;
2622;SDS011;1321;48.690;9.022;2022-12-07T13:07:13;3.30;;;3.10;;
2622;SDS011;1321;48.690;9.022;2022-12-07T13:10:20;4.35;;;3.95;;
2622;SDS011;1321;48.690;9.022;2022-12-07T13:13:00;4.63;;;4.00;;
2622;SDS011;1321;48.690;9.022;2022-12-07T13:15:34;5.70;;;3.57;;
2622;SDS011;1321;48.690;9.022;2022-12-07T13:18:04;4.80;;;3.60;;
2622;SDS011;1321;48.690;9.022;2022-12-07T13:20:52;3.97;;;3.67;;
2622;SDS011;1321;48.690;9.022;2022-12-07T13:23:27;5.17;;;4.17;;
2622;SDS011;1321;48.690;9.022;2022-12-07T13:26:00;3.90;;;3.60;;
2622;SDS011;1321;48.690;9.022;2022-12-07T13:28:44;5.43;;;4.50;;
2622;SDS011;1321;48.690;9.022;2022-12-07T13:31:26;6.87;;;4.20;;
2622;SDS011;1321;48.690;9.022;2022-12-07T13:34:00;4.95;;;4.63;;
2622;SDS011;1321;48.690;9.022;2022-12-07T13:36:30;5.33;;;3.87;;
2622;SDS011;1321;48.690;9.022;2022-12-07T13:39:16;3.70;;;3.40;;
2622;SDS011;1321;48.690;9.022;2022-12-07T13:41:49;4.15;;;3.80;;
2622;SDS011;1321;48.690;9.022;2022-12-07T13:44:19;4.33;;;4.03;;
2622;SDS011;1321;48.690;9.022;2022-12-07T13:46:52;4.90;;;4.50;;
2622;SDS011;1321;48.690;9.022;2022-12-07T13:49:26;4.65;;;4.30;;
2622;SDS011;1321;48.690;9.022;2022-12-07T13:52:08;5.10;;;4.70;;
2622;SDS011;1321;48.690;9.022;2022-12-07T13:54:45;4.87;;;4.53;;
2622;SDS011;1321;48.690;9.022;2022-12-07T13:57:15;3.93;;;3.73;;
2622;SDS011;1321;48.690;9.022;2022-12-07T13:59:44;5.83;;;5.33;;
2622;SDS011;1321;48.690;9.022;2022-12-07T14:02:19;3.80;;;3.60;;
2622;SDS011;1321;48.690;9.022;2022-12-07T14:04:49;4.00;;;3.60;;
2622;SDS011;1321;48.690;9.022;2022-12-07T14:07:20;3.60;;;3.23;;
2622;SDS011;1321;48.690;9.022;2022-12-07T14:09:55;6.47;;;4.40;;
2622;SDS011;1321;48.690;9.022;2022-12-07T14:12:25;4.30;;;4.00;;
2622;SDS011;1321;48.690;9.022;2022-12-07T14:14:55;4.30;;;4.00;;
2622;SDS011;1321;48.690;9.022;2022-12-07T14:17:25;6.13;;;5.57;;
2622;SDS011;1321;48.690;9.022;2022-12-07T14:19:55;4.57;;;4.23;;
2622;SDS011;1321;48.690;9.022;2022-12-07T14:22:30;4.43;;;4.20;;
2622;SDS011;1321;48.690;9.022;2022-12-07T14:27:54;5.10;;;4.70;;
2622;SDS011;1321;48.690;9.022;2022-12-07T14:30:25;5.53;;;4.57;;
2622;SDS011;1321;48.690;9.022;2022-12-07T14:32:57;4.23;;;3.93;;
2622;SDS011;1321;48.690;9.022;2022-12-07T14:35:28;5.80;;;5.10;;
2622;SDS011;1321;48.690;9.022;2022-12-07T14:37:57;5.27;;;4.77;;
2622;SDS011;1321;48.690;9.022;2022-12-07T14:40:28;5.43;;;4.93;;
2622;SDS011;1321;48.690;9.022;2022-12-07T14:42:57;4.50;;;4.00;;
2622;SDS011;1321;48.690;9.022;2022-12-07T14:45:28;4.17;;;3.80;;
2622;SDS011;1321;48.690;9.022;2022-12-07T14:47:57;4.50;;;4.03;;
2622;SDS011;1321;48.690;9.022;2022-12-07T14:50:46;5.97;;;5.37;;
2622;SDS011;1321;48.690;9.022;2022-12-07T14:53:39;5.93;;;5.30;;
2622;SDS011;1321;48.690;9.022;2022-12-07T14:56:20;5.90;;;5.40;;
2622;SDS011;1321;48.690;9.022;2022-12-07T14:58:48;5.30;;;4.80;;
2622;SDS011;1321;48.690;9.022;2022-12-07T15:01:16;4.90;;;4.50;;
2622;SDS011;1321;48.690;9.022;2022-12-07T15:03:44;4.80;;;4.40;;
2622;SDS011;1321;48.690;9.022;2022-12-07T15:06:14;6.13;;;5.70;;
2622;SDS011;1321;48.690;9.022;2022-12-07T15:08:43;5.35;;;4.10;;
2622;SDS011;1321;48.690;9.022;2022-12-07T15:11:12;5.30;;;4.90;;
2622;SDS011;1321;48.690;9.022;2022-12-07T15:13:43;8.50;;;4.80;;
2622;SDS011;1321;48.690;9.022;2022-12-07T15:16:29;5.77;;;4.97;;
2622;SDS011;1321;48.690;9.022;2022-12-07T15:19:18;3.97;;;3.78;;
2622;SDS011;1321;48.690;9.022;2022-12-07T15:21:56;5.15;;;4.65;;
2622;SDS011;1321;48.690;9.022;2022-12-07T15:24:26;6.67;;;5.47;;
2622;SDS011;1321;48.690;9.022;2022-12-07T15:26:54;6.63;;;5.60;;
2622;SDS011;1321;48.690;9.022;2022-12-07T15:29:24;7.70;;;5.77;;
2622;SDS011;1321;48.690;9.022;2022-12-07T15:31:53;5.75;;;4.82;;
2622;SDS011;1321;48.690;9.022;2022-12-07T15:34:23;5.67;;;5.07;;
2622;SDS011;1321;48.690;9.022;2022-12-07T15:36:53;5.73;;;5.23;;
2622;SDS011;1321;48.690;9.022;2022-12-07T15:39:21;5.57;;;5.07;;
2622;SDS011;1321;48.690;9.022;2022-12-07T15:41:50;6.93;;;5.70;;
2622;SDS011;1321;48.690;9.022;2022-12-07T15:44:18;7.00;;;5.90;;
2622;SDS011;1321;48.690;9.022;2022-12-07T15:47:05;7.03;;;5.47;;
2622;SDS011;1321;48.690;9.022;2022-12-07T15:49:34;7.13;;;5.77;;
2622;SDS011;1321;48.690;9.022;2022-12-07T15:52:03;7.17;;;6.47;;
2622;SDS011;1321;48.690;9.022;2022-12-07T15:54:31;6.97;;;6.03;;
2622;SDS011;1321;48.690;9.022;2022-12-07T15:56:59;7.60;;;6.50;;
2622;SDS011;1321;48.690;9.022;2022-12-07T15:59:28;8.60;;;6.50;;
2622;SDS011;1321;48.690;9.022;2022-12-07T16:01:57;7.10;;;6.50;;
2622;SDS011;1321;48.690;9.022;2022-12-07T16:04:27;8.40;;;7.43;;
2622;SDS011;1321;48.690;9.022;2022-12-07T16:06:56;7.90;;;7.20;;
2622;SDS011;1321;48.690;9.022;2022-12-07T16:09:25;9.95;;;7.78;;
2622;SDS011;1321;48.690;9.022;2022-12-07T16:11:54;9.13;;;8.05;;